Time;durP1;ratioP1;P1;durP2;ratioP2;P2;SDS_P1;SDS_P2;PMS_P1;PMS_P2;Temp;Humidity;BMP_temperature;BMP_pressure;BME280_temperature;BME280_humidity;BME280_pressure;Samples;Min_cycle;Max_cycle;Signal;HPM_P1;HPM_P2
2022/01/17 00:01:32;;;;;;;17.40;2.95;;;5.80;87.90;;;;;;5156995;27;20046;-81
2022/01/17 00:03:58;;;;;;;18.48;4.63;;;5.80;87.70;;;;;;5122927;27;20034;-80
2022/01/17 00:06:24;;;;;;;21.70;4.50;;;5.80;87.40;;;;;;5122971;27;20099;-80
2022/01/17 00:08:50;;;;;;;14.63;2.72;;;5.70;87.50;;;;;;5157656;27;20138;-81
2022/01/17 00:11:16;;;;;;;26.80;4.20;;;5.70;88.10;;;;;;5122761;27;20079;-80
2022/01/17 00:13:47;;;;;;;13.65;2.28;;;5.60;87.50;;;;;;5122930;27;20486;-81
2022/01/17 00:16:22;;;;;;;15.75;3.17;;;5.60;88.30;;;;;;5157047;27;20042;-81
2022/01/17 00:21:15;;;;;;;17.63;3.80;;;5.50;88.60;;;;;;5157060;27;20175;-81
2022/01/17 00:23:41;;;;;;;18.40;3.55;;;5.50;88.90;;;;;;5157431;27;20038;-81
2022/01/17 00:26:07;;;;;;;17.33;3.22;;;5.40;89.00;;;;;;5156688;27;20047;-80
2022/01/17 00:28:33;;;;;;;25.95;4.05;;;5.40;89.30;;;;;;5157175;27;20481;-81
2022/01/17 00:31:01;;;;;;;21.70;4.28;;;5.30;89.70;;;;;;5139772;27;20042;-81
2022/01/17 00:33:27;;;;;;;28.10;3.65;;;5.30;89.90;;;;;;5157469;27;20079;-81
2022/01/17 00:35:53;;;;;;;12.68;2.78;;;5.30;90.20;;;;;;5157290;27;20102;-80
2022/01/17 00:38:19;;;;;;;17.23;3.40;;;5.30;90.50;;;;;;5156980;27;20058;-81
2022/01/17 00:40:45;;;;;;;18.38;3.28;;;5.30;90.30;;;;;;5122386;27;20486;-81
2022/01/17 00:43:12;;;;;;;17.70;3.10;;;5.20;90.50;;;;;;5143400;27;20042;-81
2022/01/17 00:45:41;;;;;;;18.33;4.47;;;5.30;90.60;;;;;;5143202;27;20034;-81
2022/01/17 00:48:07;;;;;;;20.95;4.03;;;5.20;90.70;;;;;;5143408;27;20034;-81
2022/01/17 00:50:37;;;;;;;17.25;3.20;;;5.20;90.40;;;;;;5160510;27;20094;-80
2022/01/17 00:53:04;;;;;;;13.13;2.80;;;5.20;90.40;;;;;;5143577;27;20623;-80
2022/01/17 00:55:31;;;;;;;17.35;3.28;;;5.20;90.60;;;;;;5160646;27;20121;-81
2022/01/17 00:57:57;;;;;;;18.35;3.55;;;5.20;90.40;;;;;;5161195;27;20065;-80
2022/01/17 01:00:23;;;;;;;15.15;3.15;;;5.30;90.50;;;;;;5160584;27;20042;-81
2022/01/17 01:02:49;;;;;;;21.20;3.42;;;5.30;90.30;;;;;;5143788;27;20500;-80
2022/01/17 01:05:16;;;;;;;12.48;2.45;;;5.30;90.10;;;;;;5143420;27;20038;-81
2022/01/17 01:07:42;;;;;;;14.82;3.85;;;5.30;90.20;;;;;;5143657;27;20070;-80
2022/01/17 01:10:12;;;;;;;15.70;3.28;;;5.30;89.90;;;;;;5160784;27;20445;-80
2022/01/17 01:12:43;;;;;;;13.98;3.45;;;5.30;89.90;;;;;;5143322;27;20046;-81
2022/01/17 01:15:13;;;;;;;14.30;3.05;;;5.30;90.10;;;;;;5143477;27;20045;-81
2022/01/17 01:17:54;;;;;;;17.30;2.97;;;5.30;90.20;;;;;;5143320;27;20042;-81
2022/01/17 01:28:50;;;;;;;20.27;3.35;;;5.30;90.80;;;;;;5160623;27;20450;-81
2022/01/17 01:31:27;;;;;;;18.45;3.10;;;5.30;90.90;;;;;;5142944;27;20078;-82
2022/01/17 01:33:55;;;;;;;9.68;2.50;;;5.30;91.10;;;;;;5159751;27;20121;-81
2022/01/17 01:36:27;;;;;;;22.65;4.25;;;5.30;90.90;;;;;;5159677;27;20121;-81
2022/01/17 01:38:54;;;;;;;23.05;3.30;;;5.30;90.90;;;;;;5142055;27;20086;-81
2022/01/17 01:41:20;;;;;;;16.65;2.70;;;5.30;90.90;;;;;;5141987;27;20486;-81
2022/01/17 01:43:46;;;;;;;11.48;2.60;;;5.20;91.20;;;;;;5159392;27;20041;-81
2022/01/17 01:46:17;;;;;;;18.45;3.35;;;5.20;91.20;;;;;;5142464;27;20034;-81
2022/01/17 01:48:43;;;;;;;14.75;3.00;;;5.20;91.10;;;;;;5159859;27;20504;-81
2022/01/17 01:51:09;;;;;;;14.15;2.85;;;5.10;91.30;;;;;;5159613;27;20042;-79
2022/01/17 01:53:36;;;;;;;15.30;3.22;;;5.10;91.40;;;;;;5125107;27;20405;-79
2022/01/17 01:56:02;;;;;;;16.30;3.78;;;5.10;91.30;;;;;;5142559;27;20469;-79
2022/01/17 01:58:28;;;;;;;16.42;3.45;;;5.20;90.70;;;;;;5159657;27;20042;-79
2022/01/17 02:00:55;;;;;;;25.35;3.50;;;5.10;90.70;;;;;;5159698;27;20034;-79
2022/01/17 02:03:21;;;;;;;17.60;3.50;;;5.10;90.90;;;;;;5159552;27;20030;-79
2022/01/17 02:05:46;;;;;;;21.42;4.15;;;5.10;90.90;;;;;;5142637;27;20420;-79
2022/01/17 02:08:13;;;;;;;23.00;3.92;;;5.10;91.00;;;;;;5159480;27;20086;-79
2022/01/17 02:10:39;;;;;;;18.88;3.60;;;5.10;91.00;;;;;;5159335;27;20128;-79
2022/01/17 02:13:05;;;;;;;14.65;3.08;;;5.10;90.80;;;;;;5142416;27;20041;-79
2022/01/17 02:15:31;;;;;;;16.02;2.50;;;5.10;90.80;;;;;;5142124;27;20145;-79
2022/01/17 02:17:58;;;;;;;21.02;3.60;;;5.10;91.00;;;;;;5159223;27;20050;-79
2022/01/17 02:20:44;;;;;;;15.32;2.92;;;5.10;91.10;;;;;;5159047;27;20045;-79
2022/01/17 02:23:11;;;;;;;14.35;3.75;;;5.10;91.00;;;;;;5159212;27;20034;-79
2022/01/17 02:25:37;;;;;;;19.75;3.22;;;5.10;91.10;;;;;;5159421;27;20057;-79
2022/01/17 02:28:03;;;;;;;20.85;4.20;;;5.10;91.40;;;;;;5159137;27;20478;-79
2022/01/17 02:30:32;;;;;;;24.98;4.95;;;5.10;91.20;;;;;;5141929;27;20402;-79
2022/01/17 02:32:58;;;;;;;17.60;5.32;;;5.10;91.40;;;;;;5159334;27;20090;-79
2022/01/17 02:35:25;;;;;;;18.60;3.95;;;5.00;91.40;;;;;;5159255;27;20439;-79
2022/01/17 02:37:52;;;;;;;15.32;3.15;;;5.00;91.40;;;;;;5158657;27;20045;-79
2022/01/17 02:40:19;;;;;;;23.15;3.40;;;5.10;91.30;;;;;;5141485;27;20121;-79
2022/01/17 02:43:00;;;;;;;23.30;4.45;;;5.00;91.50;;;;;;5158865;27;20396;-79
2022/01/17 02:45:36;;;;;;;14.80;3.83;;;4.90;91.60;;;;;;5158790;27;20041;-78
2022/01/17 02:48:07;;;;;;;19.92;3.55;;;5.00;92.00;;;;;;5141727;27;20039;-79
2022/01/17 02:50:37;;;;;;;14.88;3.33;;;5.00;92.00;;;;;;5158625;27;20038;-79
2022/01/17 02:53:05;;;;;;;17.73;4.57;;;5.10;92.10;;;;;;5158477;27;20038;-79
2022/01/17 02:55:31;;;;;;;15.10;4.05;;;5.10;91.90;;;;;;5140695;27;20074;-79
2022/01/17 02:57:57;;;;;;;15.18;3.45;;;5.20;91.90;;;;;;5141350;27;20074;-79
2022/01/17 03:00:24;;;;;;;9.05;2.28;;;5.20;91.80;;;;;;5141131;27;20389;-79
2022/01/17 03:02:50;;;;;;;11.98;3.53;;;5.30;91.80;;;;;;5141452;27;20612;-79
2022/01/17 03:05:16;;;;;;;17.98;4.72;;;5.30;91.60;;;;;;5140124;27;20030;-79
2022/01/17 03:07:43;;;;;;;17.63;3.65;;;5.30;91.70;;;;;;5141110;27;20038;-79
2022/01/17 03:10:18;;;;;;;12.23;2.90;;;5.40;91.50;;;;;;5158151;27;20609;-79
2022/01/17 03:12:44;;;;;;;16.08;2.45;;;5.50;91.40;;;;;;5142268;27;20121;-79
2022/01/17 03:15:10;;;;;;;13.88;3.00;;;5.50;91.40;;;;;;5158109;27;20125;-79
2022/01/17 03:17:35;;;;;;;13.15;3.42;;;5.50;91.30;;;;;;5158549;27;20038;-79
2022/01/17 03:20:01;;;;;;;11.55;2.58;;;5.60;91.10;;;;;;5157967;27;20545;-79
2022/01/17 03:22:27;;;;;;;18.15;3.67;;;5.70;90.90;;;;;;5140951;27;20041;-80
2022/01/17 03:24:52;;;;;;;18.23;3.35;;;5.70;90.90;;;;;;5158368;27;20063;-80
2022/01/17 03:27:18;;;;;;;11.05;3.13;;;5.60;91.00;;;;;;5157871;27;20501;-80
2022/01/17 03:29:44;;;;;;;14.60;2.90;;;5.70;90.80;;;;;;5140927;27;20098;-79
2022/01/17 03:32:10;;;;;;;17.02;2.85;;;5.70;90.80;;;;;;5158022;27;20133;-79
2022/01/17 03:34:38;;;;;;;14.27;2.47;;;5.80;90.80;;;;;;5140609;27;20439;-79
2022/01/17 03:37:03;;;;;;;16.85;2.63;;;5.80;90.70;;;;;;5157526;27;20058;-79
2022/01/17 03:39:29;;;;;;;17.63;3.60;;;5.80;90.80;;;;;;5140825;27;20378;-79
2022/01/17 03:41:55;;;;;;;14.15;3.67;;;5.80;90.90;;;;;;5123530;27;20087;-79
2022/01/17 03:44:20;;;;;;;17.35;2.72;;;5.80;91.00;;;;;;5140641;27;20034;-79
2022/01/17 03:46:46;;;;;;;14.75;2.40;;;5.80;91.00;;;;;;5157641;27;20497;-79
2022/01/17 03:49:12;;;;;;;13.93;2.17;;;5.80;91.20;;;;;;5140466;27;20038;-79
2022/01/17 03:51:37;;;;;;;18.65;2.67;;;5.70;91.20;;;;;;5156898;27;20038;-79
2022/01/17 03:54:03;;;;;;;16.30;2.65;;;5.80;91.30;;;;;;5155864;27;20042;-79
2022/01/17 03:56:29;;;;;;;14.80;3.00;;;5.80;91.30;;;;;;5139778;27;20077;-79
2022/01/17 03:58:55;;;;;;;14.93;2.70;;;5.80;91.30;;;;;;5157342;27;20367;-79
2022/01/17 04:01:20;;;;;;;15.75;3.25;;;5.80;91.30;;;;;;5157324;27;20397;-79
2022/01/17 04:03:46;;;;;;;12.57;3.13;;;5.80;91.40;;;;;;5157818;27;20045;-79
2022/01/17 04:06:15;;;;;;;40.00;4.32;;;5.80;91.60;;;;;;5157503;27;20486;-80
2022/01/17 04:08:41;;;;;;;17.67;3.47;;;5.80;91.70;;;;;;5140081;27;20075;-79
2022/01/17 04:11:08;;;;;;;16.25;3.47;;;5.80;91.80;;;;;;5140171;27;20042;-79
2022/01/17 04:13:35;;;;;;;16.58;3.00;;;5.80;91.80;;;;;;5157381;27;20038;-79
2022/01/17 04:16:01;;;;;;;11.65;3.47;;;5.80;91.90;;;;;;5157367;27;20056;-80
2022/01/17 04:18:27;;;;;;;21.30;3.67;;;5.80;92.00;;;;;;5161592;27;20098;-79
2022/01/17 04:20:53;;;;;;;12.07;2.42;;;5.80;91.90;;;;;;5144416;27;20038;-80
2022/01/17 04:23:19;;;;;;;17.25;4.10;;;5.70;92.10;;;;;;5144329;27;20379;-79
2022/01/17 04:25:45;;;;;;;18.02;3.47;;;5.80;92.40;;;;;;5127144;27;20474;-79
2022/01/17 04:28:13;;;;;;;20.83;3.15;;;5.80;92.40;;;;;;5161794;27;20121;-80
2022/01/17 04:30:40;;;;;;;15.85;3.17;;;5.80;92.50;;;;;;5161669;27;20095;-79
2022/01/17 04:33:06;;;;;;;23.48;4.20;;;5.90;92.50;;;;;;5161808;27;20038;-79
2022/01/17 04:35:33;;;;;;;22.00;5.05;;;5.90;92.60;;;;;;5144018;27;20042;-79
2022/01/17 04:38:01;;;;;;;16.95;3.42;;;6.00;92.40;;;;;;5160995;27;20062;-80
2022/01/17 04:40:35;;;;;;;16.35;3.13;;;5.90;92.50;;;;;;5161251;27;20038;-79
2022/01/17 04:43:13;;;;;;;19.23;4.05;;;6.00;92.70;;;;;;5145185;27;20038;-79
2022/01/17 04:45:39;;;;;;;16.55;4.18;;;6.00;92.60;;;;;;5145669;27;20038;-80
2022/01/17 04:48:05;;;;;;;17.10;3.47;;;6.10;92.70;;;;;;5161244;27;20034;-79
2022/01/17 04:50:31;;;;;;;19.35;4.15;;;6.10;92.70;;;;;;5160885;27;20504;-79
2022/01/17 04:53:00;;;;;;;16.65;4.43;;;6.10;92.60;;;;;;5160790;27;20185;-79
2022/01/17 04:55:27;;;;;;;18.13;4.50;;;6.10;92.70;;;;;;5143688;27;20071;-79
2022/01/17 04:57:56;;;;;;;18.80;3.65;;;6.10;92.80;;;;;;5126941;27;20040;-79
2022/01/17 05:00:23;;;;;;;22.13;4.72;;;6.10;92.80;;;;;;5160849;27;20482;-79
2022/01/17 05:02:48;;;;;;;17.50;3.72;;;6.10;92.70;;;;;;5160919;27;20042;-80
2022/01/17 05:05:14;;;;;;;18.50;4.22;;;6.20;92.60;;;;;;5160772;27;20037;-79
2022/01/17 05:07:40;;;;;;;29.20;6.05;;;6.20;92.50;;;;;;5160771;27;20034;-80
2022/01/17 05:10:12;;;;;;;16.58;3.92;;;6.20;92.50;;;;;;5160634;27;20087;-80
2022/01/17 05:12:39;;;;;;;16.40;3.95;;;6.20;92.40;;;;;;5143492;27;20482;-79
2022/01/17 05:15:11;;;;;;;15.05;4.18;;;6.30;92.30;;;;;;5143437;27;20042;-80
2022/01/17 05:17:43;;;;;;;17.77;5.38;;;6.30;92.40;;;;;;5160614;27;20121;-80
2022/01/17 05:20:09;;;;;;;13.93;3.72;;;6.30;92.20;;;;;;5144234;27;20042;-79
2022/01/17 05:22:36;;;;;;;11.05;3.03;;;6.30;92.20;;;;;;5160401;27;20505;-79
2022/01/17 05:25:06;;;;;;;12.90;3.85;;;6.30;92.20;;;;;;5143158;27;20030;-79
2022/01/17 05:27:32;;;;;;;16.85;5.47;;;6.30;92.30;;;;;;5143387;27;20035;-80
2022/01/17 05:29:58;;;;;;;26.33;4.90;;;6.30;92.20;;;;;;5142439;27;20390;-80
2022/01/17 05:32:24;;;;;;;23.38;4.68;;;6.30;92.30;;;;;;5126115;27;20541;-80
2022/01/17 05:34:50;;;;;;;21.40;4.28;;;6.30;92.10;;;;;;5143297;27;20606;-80
2022/01/17 05:37:16;;;;;;;15.18;4.43;;;6.40;92.20;;;;;;5160632;27;20081;-80
2022/01/17 05:39:42;;;;;;;23.90;4.60;;;6.30;92.00;;;;;;5143009;27;20058;-80
2022/01/17 05:42:10;;;;;;;23.98;4.10;;;6.30;92.10;;;;;;5126049;27;20034;-79
2022/01/17 05:44:35;;;;;;;17.65;4.88;;;6.30;92.20;;;;;;5142454;27;20083;-80
2022/01/17 05:47:02;;;;;;;16.20;4.07;;;6.40;92.20;;;;;;5159671;27;20122;-80
2022/01/17 05:49:27;;;;;;;13.45;4.05;;;6.30;92.10;;;;;;5159891;27;20500;-80
2022/01/17 05:51:53;;;;;;;17.48;4.75;;;6.30;92.30;;;;;;5142587;27;20037;-80
2022/01/17 05:54:19;;;;;;;17.83;4.13;;;6.40;92.20;;;;;;5159785;27;20042;-80
2022/01/17 05:56:44;;;;;;;25.80;8.20;;;6.40;92.30;;;;;;5159777;27;20065;-81
2022/01/17 05:59:10;;;;;;;20.52;4.95;;;6.40;92.30;;;;;;5159606;27;20041;-80
2022/01/17 06:01:39;;;;;;;22.75;4.78;;;6.40;92.40;;;;;;5142426;27;20039;-80
2022/01/17 06:04:05;;;;;;;18.33;4.15;;;6.40;92.50;;;;;;5159508;27;20049;-80
2022/01/17 06:06:31;;;;;;;23.42;4.75;;;6.40;92.60;;;;;;5159948;27;20077;-80
2022/01/17 06:08:57;;;;;;;21.08;4.05;;;6.40;92.60;;;;;;5142605;27;20065;-80
2022/01/17 06:11:22;;;;;;;20.33;4.40;;;6.50;92.60;;;;;;5159542;27;20042;-80
2022/01/17 06:13:48;;;;;;;18.30;5.40;;;6.40;92.80;;;;;;5125165;27;20045;-80
2022/01/17 06:16:13;;;;;;;27.48;6.57;;;6.50;92.70;;;;;;5159466;27;20034;-80
2022/01/17 06:18:39;;;;;;;22.48;5.07;;;6.50;92.80;;;;;;5159265;27;20132;-79
2022/01/17 06:21:05;;;;;;;21.52;4.55;;;6.50;92.70;;;;;;5141865;27;20030;-80
2022/01/17 06:23:31;;;;;;;18.80;4.47;;;6.60;92.70;;;;;;5159246;27;20042;-80
2022/01/17 06:25:57;;;;;;;22.60;5.18;;;6.60;92.70;;;;;;5159286;27;20126;-79
2022/01/17 06:28:23;;;;;;;18.30;5.18;;;6.60;92.90;;;;;;5124915;27;20066;-79
2022/01/17 06:30:50;;;;;;;17.85;4.95;;;6.60;92.90;;;;;;5141817;27;20085;-79
2022/01/17 06:33:16;;;;;;;23.45;4.82;;;6.60;93.00;;;;;;5142091;27;20094;-80
2022/01/17 06:35:41;;;;;;;19.15;4.97;;;6.60;93.40;;;;;;5159088;27;20042;-80
2022/01/17 06:38:08;;;;;;;23.55;5.10;;;6.60;93.50;;;;;;5141277;27;20053;-80
2022/01/17 06:40:33;;;;;;;27.77;6.65;;;6.60;93.40;;;;;;5141208;27;20049;-81
2022/01/17 06:42:59;;;;;;;24.65;5.15;;;6.60;93.40;;;;;;5158721;27;20034;-80
2022/01/17 06:45:25;;;;;;;24.67;5.38;;;6.60;93.50;;;;;;5158760;27;20038;-80
2022/01/17 06:47:51;;;;;;;29.13;5.88;;;6.60;93.60;;;;;;5157538;27;20545;-80
2022/01/17 06:50:16;;;;;;;19.70;4.88;;;6.60;93.70;;;;;;5141118;27;20118;-80
2022/01/17 06:52:43;;;;;;;23.20;4.55;;;6.60;93.60;;;;;;5158628;27;20038;-80
2022/01/17 06:55:09;;;;;;;26.60;5.70;;;6.60;93.80;;;;;;5141155;27;20042;-81
2022/01/17 06:57:35;;;;;;;25.38;5.75;;;6.50;93.70;;;;;;5158084;27;20042;-79
2022/01/17 07:00:03;;;;;;;26.80;4.15;;;6.60;93.60;;;;;;5158032;27;20074;-81
2022/01/17 07:02:29;;;;;;;21.98;6.25;;;6.60;93.70;;;;;;5158141;27;20056;-80
2022/01/17 07:04:55;;;;;;;23.55;5.15;;;6.70;93.60;;;;;;5157525;27;20038;-79
2022/01/17 07:07:21;;;;;;;23.55;4.28;;;6.70;93.60;;;;;;5124187;27;20041;-80
2022/01/17 07:09:46;;;;;;;29.40;6.03;;;6.70;93.60;;;;;;5157880;27;20030;-80
2022/01/17 07:12:12;;;;;;;17.75;4.25;;;6.70;93.60;;;;;;5140872;27;20044;-80
2022/01/17 07:14:41;;;;;;;22.27;5.50;;;6.70;93.70;;;;;;5141079;27;20030;-80
2022/01/17 07:17:11;;;;;;;25.05;4.50;;;6.70;93.70;;;;;;5158058;27;20041;-80
2022/01/17 07:19:37;;;;;;;23.67;4.88;;;6.70;93.70;;;;;;5140840;27;20042;-80
2022/01/17 07:22:04;;;;;;;24.35;6.10;;;6.80;93.70;;;;;;5159260;27;20041;-79
2022/01/17 07:24:30;;;;;;;22.80;6.63;;;6.80;93.90;;;;;;5158048;27;20120;-79
2022/01/17 07:26:56;;;;;;;25.63;6.00;;;6.80;93.70;;;;;;5123646;27;20030;-80
2022/01/17 07:29:22;;;;;;;22.00;4.65;;;6.80;93.70;;;;;;5123599;27;20428;-81
2022/01/17 07:31:47;;;;;;;31.48;5.82;;;6.80;93.60;;;;;;5140769;27;20038;-80
2022/01/17 07:34:13;;;;;;;29.50;6.75;;;6.90;93.50;;;;;;5157940;27;20125;-80
2022/01/17 07:36:39;;;;;;;23.67;6.03;;;6.80;93.60;;;;;;5123486;27;20041;-79
2022/01/17 07:39:04;;;;;;;24.70;5.20;;;6.80;93.60;;;;;;5157592;27;20119;-80
2022/01/17 07:41:30;;;;;;;29.13;7.93;;;6.90;93.50;;;;;;5123387;27;20390;-80
2022/01/17 07:43:57;;;;;;;26.67;5.75;;;6.90;93.40;;;;;;5106413;27;20030;-80
2022/01/17 07:51:34;;;;;;;35.30;7.03;;;7.00;93.60;;;;;;5156766;27;20098;-79
2022/01/17 07:53:59;;;;;;;28.23;5.13;;;7.00;93.50;;;;;;5140444;27;20049;-80
2022/01/17 07:56:26;;;;;;;23.83;5.53;;;7.00;93.30;;;;;;5140336;27;20123;-79
2022/01/17 07:58:52;;;;;;;28.92;5.55;;;7.00;93.30;;;;;;5140129;27;20039;-80
2022/01/17 08:01:19;;;;;;;26.38;6.25;;;7.00;93.40;;;;;;5122549;27;20080;-78
2022/01/17 08:03:45;;;;;;;22.08;5.05;;;7.10;93.30;;;;;;5157186;27;20069;-79
2022/01/17 08:06:11;;;;;;;42.78;7.15;;;7.10;93.30;;;;;;5157536;27;20049;-79
2022/01/17 08:08:37;;;;;;;32.75;8.18;;;7.00;93.40;;;;;;5157422;27;20038;-80
2022/01/17 08:11:03;;;;;;;27.25;6.15;;;7.00;93.50;;;;;;5157276;27;20121;-79
2022/01/17 08:13:29;;;;;;;29.42;6.03;;;7.00;93.60;;;;;;5157477;27;20129;-79
2022/01/17 08:15:55;;;;;;;25.48;5.38;;;7.00;93.50;;;;;;5157333;27;20034;-79
2022/01/17 08:18:21;;;;;;;30.85;4.82;;;7.10;93.40;;;;;;5139936;27;20096;-79
2022/01/17 08:20:47;;;;;;;27.13;6.30;;;7.10;93.50;;;;;;5139918;27;20042;-79
2022/01/17 08:23:13;;;;;;;22.17;5.85;;;7.10;93.40;;;;;;5157497;27;20030;-79
2022/01/17 08:25:39;;;;;;;32.28;7.72;;;7.10;93.50;;;;;;5140368;27;20465;-79
2022/01/17 08:28:05;;;;;;;29.35;4.10;;;7.10;93.40;;;;;;5157132;27;20510;-79
2022/01/17 08:30:32;;;;;;;26.00;6.75;;;7.10;93.30;;;;;;5157245;27;20038;-79
2022/01/17 08:32:59;;;;;;;19.52;5.43;;;7.20;93.20;;;;;;5123378;27;20393;-80
2022/01/17 08:35:25;;;;;;;28.70;5.15;;;7.30;92.80;;;;;;5157356;27;20379;-80
2022/01/17 08:37:51;;;;;;;20.50;4.82;;;7.30;92.60;;;;;;5156812;27;20058;-80
2022/01/17 08:40:18;;;;;;;34.63;6.72;;;7.40;92.50;;;;;;5156559;27;20046;-80
2022/01/17 08:42:45;;;;;;;20.05;5.22;;;7.40;92.40;;;;;;5156966;27;20481;-80
2022/01/17 08:45:12;;;;;;;24.38;5.53;;;7.40;92.50;;;;;;5139788;27;20526;-80
2022/01/17 08:47:38;;;;;;;23.17;4.65;;;7.50;92.30;;;;;;5139862;27;20091;-80
2022/01/17 08:50:06;;;;;;;24.92;5.72;;;7.50;92.20;;;;;;5156975;27;20901;-80
2022/01/17 08:52:32;;;;;;;31.23;4.55;;;7.60;92.00;;;;;;5156953;27;20093;-80
2022/01/17 08:54:58;;;;;;;26.48;5.70;;;7.60;91.90;;;;;;5139837;27;20042;-79
2022/01/17 08:57:25;;;;;;;27.33;5.65;;;7.60;91.70;;;;;;5139958;27;20038;-79
2022/01/17 08:59:51;;;;;;;24.92;4.97;;;7.70;91.70;;;;;;5156724;27;20053;-79
2022/01/17 09:02:18;;;;;;;28.77;5.32;;;7.70;91.70;;;;;;5157446;27;20034;-79
2022/01/17 09:04:43;;;;;;;21.63;5.30;;;7.70;91.70;;;;;;5160789;27;20095;-78
2022/01/17 09:07:15;;;;;;;27.17;5.72;;;7.80;91.60;;;;;;5143740;27;20077;-78
2022/01/17 09:09:42;;;;;;;26.30;6.05;;;7.80;91.30;;;;;;5160610;27;20541;-80
2022/01/17 09:12:10;;;;;;;30.55;5.50;;;7.90;91.00;;;;;;5160731;27;20030;-80
2022/01/17 09:14:37;;;;;;;29.88;5.50;;;7.90;90.90;;;;;;5160605;27;20035;-80
2022/01/17 09:17:07;;;;;;;34.72;7.20;;;7.90;91.00;;;;;;5143309;27;20038;-79
2022/01/17 09:19:37;;;;;;;29.55;6.25;;;8.00;90.70;;;;;;5160447;27;20038;-79
2022/01/17 09:22:05;;;;;;;29.63;5.43;;;8.00;90.80;;;;;;5143394;27;20042;-79
2022/01/17 09:24:31;;;;;;;34.95;5.43;;;8.00;90.70;;;;;;5126509;27;20034;-79
2022/01/17 09:26:56;;;;;;;32.85;6.40;;;8.10;90.60;;;;;;5160542;27;20534;-79
2022/01/17 09:29:22;;;;;;;25.48;5.85;;;8.10;90.50;;;;;;5160498;27;20133;-79
2022/01/17 09:31:48;;;;;;;25.38;4.88;;;8.10;90.50;;;;;;5142990;27;20490;-79
2022/01/17 09:34:14;;;;;;;27.77;7.25;;;8.10;90.50;;;;;;5143026;27;20094;-79
2022/01/17 09:36:40;;;;;;;28.20;5.25;;;8.10;90.30;;;;;;5160097;27;20085;-79
2022/01/17 09:39:08;;;;;;;32.47;6.18;;;8.10;90.40;;;;;;5142817;27;20054;-79
2022/01/17 09:41:35;;;;;;;29.48;6.25;;;8.20;90.50;;;;;;5142714;27;20078;-79
2022/01/17 09:44:01;;;;;;;26.17;6.47;;;8.30;90.50;;;;;;5160343;27;20405;-79
2022/01/17 09:46:33;;;;;;;21.23;4.90;;;8.30;90.20;;;;;;5159897;27;20050;-79
2022/01/17 09:49:02;;;;;;;30.83;6.43;;;8.30;90.20;;;;;;5142792;27;20441;-79
2022/01/17 09:51:41;;;;;;;41.67;12.75;;;8.40;90.20;;;;;;5159568;27;20053;-79
2022/01/17 09:54:10;;;;;;;42.58;9.30;;;8.40;90.20;;;;;;5141666;27;20101;-79
2022/01/17 09:56:38;;;;;;;30.35;6.32;;;8.40;90.20;;;;;;5143076;27;20038;-79
2022/01/17 09:59:04;;;;;;;41.85;6.95;;;8.40;90.30;;;;;;5142738;27;20038;-79
2022/01/17 10:01:30;;;;;;;30.20;6.60;;;8.40;90.20;;;;;;5159392;27;20512;-79
2022/01/17 10:03:57;;;;;;;33.50;7.03;;;8.50;90.00;;;;;;5142987;27;20026;-78
2022/01/17 10:06:26;;;;;;;36.20;7.40;;;8.50;90.20;;;;;;5159640;27;20050;-79
2022/01/17 10:09:21;;;;;;;32.42;7.75;;;8.60;90.10;;;;;;5125210;27;20041;-79
2022/01/17 10:12:08;;;;;;;35.97;6.63;;;8.60;89.90;;;;;;5159579;27;20034;-79
2022/01/17 10:14:41;;;;;;;38.00;7.60;;;8.60;89.90;;;;;;5159661;27;20038;-79
2022/01/17 10:17:12;;;;;;;28.73;5.65;;;8.70;89.70;;;;;;5159562;27;20377;-80
2022/01/17 10:19:39;;;;;;;33.90;6.40;;;8.70;89.70;;;;;;5159379;27;20508;-79
2022/01/17 10:22:12;;;;;;;31.77;6.78;;;8.70;89.70;;;;;;5142299;27;20064;-79
2022/01/17 10:24:51;;;;;;;38.27;6.43;;;8.70;89.80;;;;;;5159467;27;20046;-80
2022/01/17 10:27:40;;;;;;;41.83;8.95;;;8.80;89.60;;;;;;5141978;27;20030;-80
2022/01/17 10:35:37;;;;;;;31.17;6.32;;;8.90;89.70;;;;;;5144529;27;20050;-80
2022/01/17 10:38:19;;;;;;;40.83;8.02;;;8.90;89.50;;;;;;5158692;27;20093;-80
2022/01/17 10:40:49;;;;;;;34.53;6.05;;;8.90;89.50;;;;;;5158839;27;20074;-80
2022/01/17 10:43:21;;;;;;;33.15;7.13;;;8.90;89.60;;;;;;5158826;27;20478;-80
2022/01/17 10:45:48;;;;;;;31.55;7.30;;;9.00;89.40;;;;;;5159277;27;20450;-80
2022/01/17 10:48:13;;;;;;;48.83;9.23;;;9.00;89.60;;;;;;5158638;27;20562;-80
2022/01/17 10:50:43;;;;;;;35.58;7.03;;;9.00;89.40;;;;;;5124283;27;20046;-80
2022/01/17 10:53:16;;;;;;;44.03;7.97;;;9.00;89.20;;;;;;5158569;27;20049;-79
2022/01/17 10:55:52;;;;;;;39.70;8.27;;;9.00;89.30;;;;;;5158835;27;20042;-80
2022/01/17 10:58:25;;;;;;;37.28;9.02;;;9.10;89.30;;;;;;5158543;27;20038;-80
2022/01/17 11:01:01;;;;;;;33.65;7.55;;;9.10;89.60;;;;;;5158446;27;20042;-80
2022/01/17 11:03:32;;;;;;;37.88;8.05;;;9.20;89.70;;;;;;5158957;27;20077;-80
2022/01/17 11:06:03;;;;;;;46.83;9.68;;;9.20;89.50;;;;;;5158341;27;20030;-80
2022/01/17 11:08:30;;;;;;;30.75;7.60;;;9.20;89.40;;;;;;5158024;27;20042;-80
2022/01/17 11:10:58;;;;;;;45.75;9.90;;;9.30;89.20;;;;;;5157833;27;20055;-80
2022/01/17 11:13:31;;;;;;;38.92;8.20;;;9.40;89.10;;;;;;5158072;27;20125;-80
2022/01/17 11:16:00;;;;;;;38.90;7.65;;;9.40;88.80;;;;;;5140346;27;20045;-80
2022/01/17 11:18:29;;;;;;;41.42;8.13;;;9.50;88.60;;;;;;5157947;27;20053;-80
2022/01/17 11:20:58;;;;;;;43.80;12.02;;;9.50;88.60;;;;;;5157601;27;20038;-80
2022/01/17 11:23:25;;;;;;;37.47;10.25;;;9.50;88.70;;;;;;5157633;27;20045;-80
2022/01/17 11:25:54;;;;;;;60.72;14.13;;;9.60;88.50;;;;;;5122978;27;20402;-80
2022/01/17 11:28:26;;;;;;;59.63;15.98;;;9.60;88.40;;;;;;5157293;27;20058;-80
2022/01/17 11:30:54;;;;;;;50.33;17.02;;;9.60;88.20;;;;;;5157590;27;20038;-80
2022/01/17 11:33:21;;;;;;;36.60;9.15;;;9.60;88.40;;;;;;5157465;27;20045;-80
2022/01/17 11:35:51;;;;;;;32.85;8.13;;;9.70;88.30;;;;;;5122925;27;20049;-80
2022/01/17 11:38:24;;;;;;;41.70;12.10;;;9.70;88.20;;;;;;5123468;27;20057;-80
2022/01/17 11:40:51;;;;;;;36.80;8.10;;;9.70;88.10;;;;;;5157456;27;20398;-81
2022/01/17 11:43:18;;;;;;;42.72;11.40;;;9.70;88.40;;;;;;5140205;27;20023;-80
2022/01/17 11:45:45;;;;;;;43.67;8.85;;;9.80;88.30;;;;;;5157001;27;20070;-80
2022/01/17 11:48:29;;;;;;;36.20;8.43;;;9.80;88.10;;;;;;5139930;27;20072;-80
2022/01/17 11:51:14;;;;;;;45.95;9.65;;;9.90;88.00;;;;;;5157276;27;20041;-80
2022/01/17 11:53:48;;;;;;;48.95;8.45;;;10.00;87.90;;;;;;5157486;27;20055;-80
2022/01/17 11:56:36;;;;;;;40.47;8.95;;;10.00;87.70;;;;;;5157340;27;20064;-80
2022/01/17 11:59:23;;;;;;;45.78;10.07;;;10.10;87.60;;;;;;5156392;27;20095;-80
2022/01/17 12:02:24;;;;;;;33.00;8.90;;;10.10;87.50;;;;;;5139729;27;20094;-81
2022/01/17 12:05:06;;;;;;;38.47;9.65;;;10.10;87.00;;;;;;5157261;27;20366;-80
2022/01/17 12:07:42;;;;;;;37.75;7.85;;;10.20;87.00;;;;;;5139735;27;20121;-80
2022/01/17 12:10:17;;;;;;;53.35;10.27;;;10.20;87.00;;;;;;5156985;27;20039;-80
2022/01/17 12:13:03;;;;;;;40.20;9.32;;;10.30;87.00;;;;;;5156876;27;20159;-81
2022/01/17 12:15:35;;;;;;;36.80;7.05;;;10.30;86.70;;;;;;5139637;27;20042;-81
2022/01/17 12:18:35;;;;;;;38.65;8.60;;;10.40;86.20;;;;;;5140798;27;20050;-81
2022/01/17 12:21:19;;;;;;;42.58;8.32;;;10.40;86.40;;;;;;5095702;27;20155;-81
2022/01/17 12:23:45;;;;;;;41.45;10.57;;;10.30;86.30;;;;;;5139642;27;20402;-80
2022/01/17 12:26:31;;;;;;;41.67;7.63;;;10.30;86.00;;;;;;5156701;27;20042;-80
2022/01/17 12:28:59;;;;;;;38.42;8.07;;;10.30;86.20;;;;;;5156895;27;20050;-80
2022/01/17 12:31:39;;;;;;;45.42;10.65;;;10.40;86.20;;;;;;5156748;27;20060;-80
2022/01/17 12:34:19;;;;;;;41.35;8.60;;;10.30;86.20;;;;;;5157073;27;20277;-80
2022/01/17 12:36:46;;;;;;;51.92;13.32;;;10.40;86.20;;;;;;5139387;27;20038;-80
2022/01/17 12:39:15;;;;;;;44.88;13.00;;;10.40;86.10;;;;;;5160096;27;20053;-80
2022/01/17 12:41:43;;;;;;;49.63;11.55;;;10.40;86.30;;;;;;5160732;27;20035;-80
2022/01/17 12:44:24;;;;;;;43.17;9.52;;;10.50;86.40;;;;;;5143639;27;20042;-80
2022/01/17 12:46:55;;;;;;;51.05;9.27;;;10.50;86.20;;;;;;5143306;27;20042;-81
2022/01/17 12:49:22;;;;;;;35.97;7.57;;;10.50;85.90;;;;;;5160736;27;20042;-81
2022/01/17 12:51:50;;;;;;;41.03;9.18;;;10.60;85.60;;;;;;5143451;27;20045;-81
2022/01/17 12:54:22;;;;;;;48.58;10.05;;;10.60;85.80;;;;;;5143525;27;20042;-80
2022/01/17 12:56:50;;;;;;;41.03;8.60;;;10.60;85.80;;;;;;5160590;27;20093;-80
2022/01/17 12:59:17;;;;;;;38.65;9.43;;;10.60;85.60;;;;;;5126138;27;20038;-80
2022/01/17 13:01:48;;;;;;;41.50;9.63;;;10.60;85.60;;;;;;5143082;27;20066;-80
2022/01/17 13:04:16;;;;;;;50.45;10.38;;;10.60;85.30;;;;;;5160573;27;20049;-80
2022/01/17 13:06:43;;;;;;;50.92;9.48;;;10.50;86.00;;;;;;5143307;27;20503;-80
2022/01/17 13:09:15;;;;;;;51.47;9.05;;;10.30;86.40;;;;;;5143018;27;20049;-80
2022/01/17 13:11:43;;;;;;;48.15;9.95;;;10.20;86.60;;;;;;5143275;27;20053;-80
2022/01/17 13:14:10;;;;;;;47.00;10.90;;;10.20;86.90;;;;;;5160210;27;20046;-80